createdAt,value
2024-01-11T00:01:15.306Z,99959.81
2024-01-11T00:03:42.315Z,99957.16
2024-01-11T00:06:10.005Z,99958.03
2024-01-11T00:08:37.309Z,99949.31
2024-01-11T00:11:05.039Z,99952.69
2024-01-11T00:13:32.045Z,99952.72
2024-01-11T00:15:59.337Z,99950.94
2024-01-11T00:18:26.544Z,99947.44
2024-01-11T00:20:54.082Z,99950.84
2024-01-11T00:23:21.186Z,99951.66
2024-01-11T00:25:48.535Z,99944.66
2024-01-11T00:28:15.549Z,99948.03
2024-01-11T00:30:42.834Z,99947.00
2024-01-11T00:33:10.661Z,99950.34
2024-01-11T00:35:38.173Z,99939.97
2024-01-11T00:38:05.354Z,99945.06
2024-01-11T00:40:32.600Z,99932.97
2024-01-11T00:42:59.647Z,99943.22
2024-01-11T00:45:26.974Z,99943.22
2024-01-11T00:47:54.649Z,99939.72
2024-01-11T00:50:22.693Z,99932.81
2024-01-11T00:52:49.779Z,99933.63
2024-01-11T00:55:17.514Z,99926.69
2024-01-11T00:57:44.462Z,99920.53
2024-01-11T01:00:16.019Z,99924.75
2024-01-11T01:02:43.646Z,99920.31
2024-01-11T01:05:11.340Z,99922.84
2024-01-11T01:07:39.890Z,99914.19
2024-01-11T01:10:53.034Z,99909.81
2024-01-11T01:13:20.228Z,99917.47
2024-01-11T01:15:47.674Z,99902.63
2024-01-11T01:18:14.774Z,99920.63
2024-01-11T01:20:42.295Z,99921.38
2024-01-11T01:23:09.376Z,99916.25
2024-01-11T01:25:36.818Z,99922.34
2024-01-11T01:28:04.260Z,99933.53
2024-01-11T01:30:31.699Z,99925.72
2024-01-11T01:32:58.783Z,99924.00
2024-01-11T01:35:26.162Z,99914.44
2024-01-11T01:37:53.168Z,99921.38
2024-01-11T01:40:20.521Z,99922.97
2024-01-11T01:42:47.690Z,99910.72
2024-01-11T01:45:16.963Z,99923.53
2024-01-11T01:47:45.792Z,99923.31
2024-01-11T01:50:14.481Z,99936.06
2024-01-11T01:52:44.937Z,99932.56
2024-01-11T01:55:16.105Z,99927.31
2024-01-11T01:57:46.016Z,99927.69
2024-01-11T02:00:14.734Z,99925.13
2024-01-11T02:02:48.450Z,99915.69
2024-01-11T02:05:19.091Z,99907.25
2024-01-11T02:07:46.533Z,99908.97
2024-01-11T02:10:13.910Z,99901.94
2024-01-11T02:12:42.735Z,99901.13
2024-01-11T02:15:10.438Z,99894.88
2024-01-11T02:17:37.869Z,99900.13
2024-01-11T02:20:06.162Z,99905.31
2024-01-11T02:22:41.668Z,99896.34
2024-01-11T02:25:09.518Z,99895.56
2024-01-11T02:27:47.984Z,99899.84
2024-01-11T02:30:16.447Z,99890.72
2024-01-11T02:32:49.933Z,99896.00
2024-01-11T02:35:18.122Z,99898.69
2024-01-11T02:37:47.714Z,99895.19
2024-01-11T02:40:16.369Z,99882.38
2024-01-11T02:42:43.543Z,99882.44
2024-01-11T02:45:15.903Z,99883.19
2024-01-11T02:47:43.196Z,99896.72
2024-01-11T02:50:13.076Z,99897.47
2024-01-11T02:52:40.367Z,99895.63
2024-01-11T02:55:08.042Z,99889.25
2024-01-11T02:57:34.986Z,99886.53
2024-01-11T03:00:02.327Z,99883.72
2024-01-11T03:02:29.570Z,99891.56
2024-01-11T03:04:56.975Z,99895.88
2024-01-11T03:07:24.005Z,99895.00
2024-01-11T03:09:51.303Z,99911.13
2024-01-11T03:12:18.302Z,99909.06
2024-01-11T03:14:45.541Z,99899.91
2024-01-11T03:17:12.592Z,99893.16
2024-01-11T03:19:43.301Z,99886.31
2024-01-11T03:22:13.303Z,99889.81
2024-01-11T03:24:40.832Z,99894.09
2024-01-11T03:27:07.994Z,99890.84
2024-01-11T03:29:35.404Z,99884.94
2024-01-11T03:32:02.620Z,99891.03
2024-01-11T03:34:29.927Z,99882.47
2024-01-11T03:36:57.031Z,99883.38
2024-01-11T03:39:26.661Z,99891.16
2024-01-11T03:41:53.900Z,99887.72
2024-01-11T03:44:21.224Z,99883.31
2024-01-11T03:46:48.299Z,99897.91
2024-01-11T03:49:15.644Z,99896.97
2024-01-11T03:51:42.653Z,99905.59
2024-01-11T03:54:10.060Z,99901.25
2024-01-11T03:56:40.754Z,99895.19
2024-01-11T03:59:08.325Z,99894.28
2024-01-11T04:01:42.136Z,99893.25
2024-01-11T04:04:09.878Z,99901.44
2024-01-11T04:06:37.024Z,99907.31
2024-01-11T04:09:04.405Z,99903.88
2024-01-11T04:11:31.936Z,99896.72
2024-01-11T04:13:59.326Z,99895.66
2024-01-11T04:16:26.396Z,99892.03
2024-01-11T04:18:53.813Z,99901.47
2024-01-11T04:21:23.580Z,99892.88
2024-01-11T04:23:52.073Z,99901.34
2024-01-11T04:26:19.207Z,99906.59
2024-01-11T04:28:47.684Z,99906.72
2024-01-11T04:31:18.310Z,99907.00
2024-01-11T04:33:47.331Z,99909.75
2024-01-11T04:36:15.036Z,99907.25
2024-01-11T04:38:42.415Z,99908.19
2024-01-11T04:41:14.474Z,99912.56
2024-01-11T04:43:43.945Z,99892.78
2024-01-11T04:46:22.443Z,99879.19
2024-01-11T04:48:51.510Z,99875.78
2024-01-11T04:51:19.612Z,99869.47
2024-01-11T04:53:48.198Z,99862.09
2024-01-11T04:56:17.266Z,99873.91
2024-01-11T04:58:47.085Z,99882.34
2024-01-11T05:01:16.957Z,99880.56
2024-01-11T05:03:47.516Z,99880.56
2024-01-11T05:06:23.340Z,99886.13
2024-01-11T05:08:53.956Z,99886.03
2024-01-11T05:11:25.942Z,99876.88
2024-01-11T05:13:54.079Z,99875.41
2024-01-11T05:16:31.061Z,99883.38
2024-01-11T05:18:59.818Z,99879.81
2024-01-11T05:21:27.520Z,99884.19
2024-01-11T05:23:55.101Z,99869.72
2024-01-11T05:26:22.649Z,99880.00
2024-01-11T05:28:50.055Z,99885.09
2024-01-11T05:31:17.742Z,99887.16
2024-01-11T05:33:47.114Z,99888.94
2024-01-11T05:36:14.401Z,99889.88
2024-01-11T05:38:42.086Z,99892.44
2024-01-11T05:41:09.935Z,99891.63
2024-01-11T05:43:40.455Z,99883.00
2024-01-11T05:46:08.483Z,99890.66
2024-01-11T05:48:36.554Z,99900.22
2024-01-11T05:51:03.793Z,99901.06
2024-01-11T05:53:31.102Z,99892.28
2024-01-11T05:55:58.269Z,99897.47
2024-01-11T05:58:25.590Z,99896.66
2024-01-11T06:00:52.696Z,99897.44
2024-01-11T06:03:20.090Z,99888.69
2024-01-11T06:05:47.595Z,99888.81
2024-01-11T06:08:14.960Z,99893.09
2024-01-11T06:10:42.754Z,99904.81
2024-01-11T06:13:10.876Z,99899.38
2024-01-11T06:15:37.965Z,99903.50
2024-01-11T06:18:06.302Z,99891.78
2024-01-11T06:20:33.666Z,99893.41
2024-01-11T06:23:01.199Z,99897.84
2024-01-11T06:25:28.895Z,99894.47
2024-01-11T06:27:56.716Z,99897.97
2024-01-11T06:30:23.704Z,99898.97
2024-01-11T06:32:51.210Z,99904.63
2024-01-11T06:35:18.517Z,99906.22
2024-01-11T06:37:45.832Z,99913.94
2024-01-11T06:40:12.855Z,99908.66
2024-01-11T06:42:40.123Z,99907.59
2024-01-11T06:45:07.944Z,99906.09
2024-01-11T06:47:35.500Z,99903.63
2024-01-11T06:50:04.087Z,99894.34
2024-01-11T06:52:31.427Z,99901.19
2024-01-11T06:54:58.646Z,99901.91
2024-01-11T06:57:25.950Z,99910.41
2024-01-11T06:59:53.152Z,99912.81
2024-01-11T07:02:20.531Z,99923.47
2024-01-11T07:04:47.493Z,99922.53
2024-01-11T07:07:14.933Z,99912.81
2024-01-11T07:09:41.873Z,99899.19
2024-01-11T07:12:10.094Z,99904.41
2024-01-11T07:14:37.629Z,99896.03
2024-01-11T07:17:05.593Z,99894.31
2024-01-11T07:19:33.922Z,99891.69
2024-01-11T07:22:02.856Z,99888.38
2024-01-11T07:24:38.466Z,99892.75
2024-01-11T07:27:07.490Z,99900.47
2024-01-11T07:29:35.725Z,99903.81
2024-01-11T07:32:05.408Z,99910.63
2024-01-11T07:34:34.085Z,99904.41
2024-01-11T07:37:01.616Z,99904.19
2024-01-11T07:39:28.834Z,99901.63
2024-01-11T07:41:56.199Z,99912.31
2024-01-11T07:44:23.345Z,99893.53
2024-01-11T07:46:54.325Z,99892.75
2024-01-11T07:49:23.046Z,99886.81
2024-01-11T07:51:50.566Z,99881.75
2024-01-11T07:54:17.821Z,99873.13
2024-01-11T07:56:45.224Z,99871.44
2024-01-11T07:59:16.226Z,99866.47
2024-01-11T08:01:44.039Z,99865.78
2024-01-11T08:04:11.233Z,99856.38
2024-01-11T08:06:39.033Z,99847.91
2024-01-11T08:09:06.801Z,99854.03
2024-01-11T08:11:36.675Z,99871.28
2024-01-11T08:14:07.245Z,99872.84
2024-01-11T08:16:34.930Z,99865.19
2024-01-11T08:19:02.518Z,99844.75
2024-01-11T08:21:30.386Z,99835.53
2024-01-11T08:24:01.565Z,99838.44
2024-01-11T08:26:33.290Z,99854.09
2024-01-11T08:29:00.515Z,99866.97
2024-01-11T08:31:28.995Z,99856.09
2024-01-11T08:33:56.310Z,99859.09
2024-01-11T08:36:23.634Z,99853.53
2024-01-11T08:38:51.050Z,99846.09
2024-01-11T08:41:18.576Z,99832.38
2024-01-11T08:43:45.569Z,99822.06
2024-01-11T08:46:12.798Z,99827.38
2024-01-11T08:48:39.846Z,99831.94
2024-01-11T08:51:07.656Z,99822.81
2024-01-11T08:53:34.810Z,99822.97
2024-01-11T08:56:02.403Z,99822.41
2024-01-11T08:58:29.615Z,99814.88
2024-01-11T09:00:57.039Z,99831.28
2024-01-11T09:03:24.129Z,99820.00
2024-01-11T09:05:51.946Z,99823.78
2024-01-11T09:08:19.318Z,99829.19
2024-01-11T09:10:47.437Z,99843.06
2024-01-11T09:13:15.198Z,99846.69
2024-01-11T09:15:43.571Z,99858.94
2024-01-11T09:18:11.058Z,99847.09
2024-01-11T09:20:38.677Z,99844.78
2024-01-11T09:23:07.280Z,99841.75
2024-01-11T09:25:37.095Z,99847.97
2024-01-11T09:28:04.894Z,99847.50
2024-01-11T09:30:32.296Z,99850.47
2024-01-11T09:32:59.404Z,99843.94
2024-01-11T09:35:26.827Z,99859.66
2024-01-11T09:37:53.953Z,99854.66
2024-01-11T09:40:21.669Z,99846.09
2024-01-11T09:42:49.841Z,99834.88
2024-01-11T09:45:18.551Z,99828.09
2024-01-11T09:47:47.372Z,99826.53
2024-01-11T09:50:19.333Z,99838.50
2024-01-11T09:52:51.634Z,99848.63
2024-01-11T09:55:19.889Z,99857.22
2024-01-11T09:58:00.875Z,99848.78
2024-01-11T10:00:29.827Z,99837.03
2024-01-11T10:02:56.967Z,99833.91
2024-01-11T10:05:24.593Z,99826.41
2024-01-11T10:07:51.695Z,99828.31
2024-01-11T10:10:19.044Z,99814.78
2024-01-11T10:12:46.336Z,99816.50
2024-01-11T10:15:15.021Z,99812.28
2024-01-11T10:17:47.006Z,99808.88
2024-01-11T10:20:15.727Z,99799.59
2024-01-11T10:22:44.107Z,99807.59
2024-01-11T10:25:45.576Z,99801.69
2024-01-11T10:28:15.631Z,99803.47
2024-01-11T10:30:47.403Z,99799.31
2024-01-11T10:33:14.571Z,99803.06
2024-01-11T10:35:42.572Z,99804.97
2024-01-11T10:38:11.773Z,99818.00
2024-01-11T10:40:39.140Z,99816.41
2024-01-11T10:43:12.673Z,99812.16
2024-01-11T10:45:40.555Z,99805.31
2024-01-11T10:48:18.177Z,99801.94
2024-01-11T10:50:47.633Z,99813.28
2024-01-11T10:53:35.568Z,99816.78
2024-01-11T10:56:08.433Z,99807.28
2024-01-11T10:58:36.814Z,99806.50
2024-01-11T11:01:05.758Z,99819.47
2024-01-11T11:03:35.613Z,99812.84
2024-01-11T11:06:05.340Z,99792.38
2024-01-11T11:08:33.319Z,99796.97
2024-01-11T11:11:05.530Z,99799.00
2024-01-11T11:13:52.650Z,99791.53
2024-01-11T11:16:21.091Z,99771.09
2024-01-11T11:18:48.452Z,99782.41
2024-01-11T11:21:16.503Z,99777.31
2024-01-11T11:24:00.836Z,99787.75
2024-01-11T11:26:50.736Z,99785.19
2024-01-11T11:29:19.175Z,99784.34
2024-01-11T11:31:49.025Z,99780.03
2024-01-11T11:34:17.658Z,99774.91
2024-01-11T11:36:47.957Z,99773.25
2024-01-11T11:39:15.511Z,99753.53
2024-01-11T11:41:44.026Z,99745.81
2024-01-11T11:44:17.008Z,99733.84
2024-01-11T11:46:46.459Z,99727.84
2024-01-11T11:49:14.859Z,99715.78
2024-01-11T11:51:45.096Z,99713.13
2024-01-11T11:54:34.268Z,99715.69
2024-01-11T11:57:01.825Z,99714.00
2024-01-11T11:59:30.022Z,99714.84
2024-01-11T12:02:00.593Z,99706.22
2024-01-11T12:04:27.986Z,99695.91
2024-01-11T12:06:55.746Z,99692.47
2024-01-11T12:09:24.467Z,99691.59
2024-01-11T12:12:02.141Z,99690.75
2024-01-11T12:14:35.311Z,99682.16
2024-01-11T12:17:05.294Z,99677.91
2024-01-11T12:19:32.406Z,99671.09
2024-01-11T12:22:01.283Z,99653.91
2024-01-11T12:24:28.802Z,99651.38
2024-01-11T12:26:57.170Z,99651.41
2024-01-11T12:29:24.715Z,99648.88
2024-01-11T12:31:53.437Z,99654.09
2024-01-11T12:34:22.312Z,99649.00
2024-01-11T12:36:49.816Z,99645.63
2024-01-11T12:39:18.280Z,99638.78
2024-01-11T12:41:45.825Z,99643.25
2024-01-11T12:44:13.010Z,99644.25
2024-01-11T12:46:56.528Z,99640.84
2024-01-11T12:49:24.129Z,99626.25
2024-01-11T12:51:51.612Z,99633.25
2024-01-11T12:54:20.649Z,99619.47
2024-01-11T12:56:48.122Z,99622.16
2024-01-11T12:59:17.608Z,99613.59
2024-01-11T13:01:45.097Z,99611.09
2024-01-11T13:04:13.113Z,99618.06
2024-01-11T13:06:40.980Z,99617.28
2024-01-11T13:09:09.368Z,99626.00
2024-01-11T13:11:36.876Z,99630.38
2024-01-11T13:14:07.937Z,99628.69
2024-01-11T13:16:35.463Z,99630.47
2024-01-11T13:19:08.066Z,99627.88
2024-01-11T13:21:40.832Z,99632.25
2024-01-11T13:24:11.157Z,99640.09
2024-01-11T13:26:38.640Z,99635.84
2024-01-11T13:29:09.156Z,99626.38
2024-01-11T13:31:36.419Z,99626.44
2024-01-11T13:34:04.781Z,99620.44
2024-01-11T13:36:32.343Z,99621.38
2024-01-11T13:38:59.294Z,99611.91
2024-01-11T13:41:26.772Z,99618.00
2024-01-11T13:43:55.596Z,99616.31
2024-01-11T13:46:23.079Z,99616.34
2024-01-11T13:48:50.136Z,99609.47
2024-01-11T13:51:17.603Z,99603.47
2024-01-11T13:53:44.757Z,99606.06
2024-01-11T13:56:12.296Z,99610.41
2024-01-11T13:58:39.439Z,99605.19
2024-01-11T14:01:06.841Z,99613.00
2024-01-11T14:03:33.922Z,99606.13
2024-01-11T14:06:01.770Z,99616.53
2024-01-11T14:08:29.095Z,99613.06
2024-01-11T14:10:56.522Z,99613.94
2024-01-11T14:13:23.533Z,99617.41
2024-01-11T14:15:52.257Z,99607.91
2024-01-11T14:18:20.394Z,99608.75
2024-01-11T14:20:48.245Z,99605.28
2024-01-11T14:23:15.373Z,99604.41
2024-01-11T14:25:42.874Z,99607.84
2024-01-11T14:28:09.925Z,99609.56
2024-01-11T14:30:37.332Z,99598.31
2024-01-11T14:33:05.146Z,99600.91
2024-01-11T14:35:32.662Z,99588.78
2024-01-11T14:37:59.770Z,99590.50
2024-01-11T14:40:28.502Z,99593.09
2024-01-11T14:42:56.794Z,99586.13
2024-01-11T14:45:24.077Z,99586.97
2024-01-11T14:47:51.148Z,99590.41
2024-01-11T14:50:18.628Z,99593.84
2024-01-11T14:52:45.712Z,99596.41
2024-01-11T14:55:12.939Z,99592.06
2024-01-11T14:58:25.605Z,99599.81
2024-01-11T15:01:02.374Z,99605.00
2024-01-11T15:03:29.380Z,99600.63
2024-01-11T15:05:57.105Z,99598.91
2024-01-11T15:08:24.211Z,99599.75
2024-01-11T15:10:51.551Z,99593.66
2024-01-11T15:13:18.538Z,99597.13
2024-01-11T15:15:46.071Z,99597.09
2024-01-11T15:18:13.465Z,99596.25
2024-01-11T15:20:42.581Z,99592.78
2024-01-11T15:23:09.774Z,99596.28
2024-01-11T15:25:45.597Z,99590.22
2024-01-11T15:28:27.637Z,99598.94
2024-01-11T15:30:55.053Z,99594.63
2024-01-11T15:33:22.235Z,99603.31
2024-01-11T15:35:49.697Z,99588.59
2024-01-11T15:38:34.992Z,99592.94
2024-01-11T15:41:24.616Z,99604.22
2024-01-11T15:43:51.856Z,99595.59
2024-01-11T15:46:19.186Z,99596.47
2024-01-11T15:49:28.193Z,99588.69
2024-01-11T15:51:55.535Z,99582.66
2024-01-11T15:54:22.710Z,99580.91
2024-01-11T15:56:50.377Z,99584.41
2024-01-11T15:59:23.924Z,99584.44
2024-01-11T16:02:00.724Z,99582.69
2024-01-11T16:04:33.565Z,99587.03
2024-01-11T16:07:01.056Z,99601.72
2024-01-11T16:09:28.261Z,99597.34
2024-01-11T16:12:02.344Z,99609.47
2024-01-11T16:14:32.268Z,99608.56
2024-01-11T16:16:59.771Z,99603.38
2024-01-11T16:19:26.909Z,99594.69
2024-01-11T16:21:54.273Z,99592.94
2024-01-11T16:24:21.239Z,99598.13
2024-01-11T16:26:55.369Z,99598.97
2024-01-11T16:29:22.541Z,99598.94
2024-01-11T16:31:51.549Z,99598.09
2024-01-11T16:34:18.556Z,99602.41
2024-01-11T16:36:46.176Z,99606.72
2024-01-11T16:39:13.237Z,99598.91
2024-01-11T16:41:42.294Z,99604.13
2024-01-11T16:44:10.273Z,99604.97
2024-01-11T16:46:37.739Z,99607.59
2024-01-11T16:49:05.241Z,99605.00
2024-01-11T16:51:33.235Z,99606.72
2024-01-11T16:54:00.376Z,99602.41
2024-01-11T16:56:28.001Z,99605.03
2024-01-11T16:59:25.515Z,99606.75
2024-01-11T17:01:52.949Z,99604.19
2024-01-11T17:04:19.989Z,99600.75
2024-01-11T17:06:47.439Z,99608.56
2024-01-11T17:09:14.447Z,99601.63
2024-01-11T17:11:42.029Z,99592.06
2024-01-11T17:14:09.638Z,99600.75
2024-01-11T17:16:37.391Z,99587.72
2024-01-11T17:19:04.555Z,99596.38
2024-01-11T17:21:32.405Z,99588.56
2024-01-11T17:23:59.518Z,99597.22
2024-01-11T17:26:26.929Z,99611.91
2024-01-11T17:29:06.145Z,99619.72
2024-01-11T17:31:33.751Z,99604.09
2024-01-11T17:34:01.038Z,99605.78
2024-01-11T17:36:28.855Z,99604.09
2024-01-11T17:39:49.945Z,99605.78
2024-01-11T17:42:18.629Z,99611.81
2024-01-11T17:44:46.263Z,99613.53
2024-01-11T17:47:13.832Z,99613.53
2024-01-11T17:49:42.930Z,99611.78
2024-01-11T17:52:10.638Z,99615.22
2024-01-11T17:54:40.861Z,99608.28
2024-01-11T17:57:10.789Z,99615.19
2024-01-11T17:59:37.826Z,99625.53
2024-01-11T18:02:05.278Z,99626.38
2024-01-11T18:04:32.431Z,99628.97
2024-01-11T18:06:59.752Z,99639.34
2024-01-11T18:09:26.983Z,99647.16
2024-01-11T18:11:54.278Z,99647.16
2024-01-11T18:14:21.540Z,99647.16
2024-01-11T18:16:48.921Z,99654.03
2024-01-11T18:19:16.000Z,99652.31
2024-01-11T18:21:43.794Z,99655.75
2024-01-11T18:24:10.940Z,99655.75
2024-01-11T18:26:38.216Z,99650.50
2024-01-11T18:29:05.420Z,99656.56
2024-01-11T18:31:32.721Z,99655.66
2024-01-11T18:33:59.798Z,99664.31
2024-01-11T18:36:27.033Z,99669.47
2024-01-11T18:38:57.524Z,99656.44
2024-01-11T18:41:25.140Z,99663.38
2024-01-11T18:43:52.188Z,99667.63
2024-01-11T18:46:21.751Z,99669.38
2024-01-11T18:48:49.105Z,99672.78
2024-01-11T18:51:16.542Z,99680.53
2024-01-11T18:54:02.739Z,99673.59
2024-01-11T18:56:30.619Z,99680.47
2024-01-11T19:02:25.205Z,99689.91
2024-01-11T19:04:52.579Z,99700.22
2024-01-11T19:07:20.525Z,99696.66
2024-01-11T19:09:48.216Z,99701.81
2024-01-11T19:12:15.624Z,99703.47
2024-01-11T19:14:59.295Z,99706.81
2024-01-11T19:17:27.555Z,99711.09
2024-01-11T19:19:56.538Z,99712.75
2024-01-11T19:22:24.194Z,99712.75
2024-01-11T19:24:51.220Z,99714.41
2024-01-11T19:27:19.105Z,99728.94
2024-01-11T19:29:46.541Z,99726.22
2024-01-11T19:32:14.209Z,99733.91
2024-01-11T19:34:41.218Z,99733.81
2024-01-11T19:37:08.827Z,99751.00
2024-01-11T19:39:36.051Z,99750.13
2024-01-11T19:42:04.219Z,99745.56
2024-01-11T19:44:32.089Z,99755.06
2024-01-11T19:46:59.498Z,99745.50
2024-01-11T19:49:35.722Z,99747.16
2024-01-11T19:52:03.291Z,99737.56
2024-01-11T19:54:30.685Z,99748.53
2024-01-11T19:57:46.047Z,99745.81
2024-01-11T20:00:19.843Z,99747.44
2024-01-11T20:02:47.000Z,99754.28
2024-01-11T20:05:14.644Z,99748.16
2024-01-11T20:08:03.395Z,99774.84
2024-01-11T20:10:35.612Z,99779.13
2024-01-11T20:13:02.913Z,99776.44
2024-01-11T20:15:30.917Z,99779.84
2024-01-11T20:17:58.299Z,99774.69
2024-01-11T20:20:25.606Z,99778.06
2024-01-11T20:22:52.616Z,99772.88
2024-01-11T20:25:20.448Z,99777.19
2024-01-11T20:27:47.614Z,99781.22
2024-01-11T20:30:15.104Z,99798.59
2024-01-11T20:32:42.283Z,99796.78
2024-01-11T20:35:10.029Z,99795.88
2024-01-11T20:37:45.196Z,99801.91
2024-01-11T20:40:12.743Z,99798.38
2024-01-11T20:42:57.485Z,99801.78
2024-01-11T20:45:40.423Z,99793.06
2024-01-11T20:48:21.142Z,99804.31
2024-01-11T20:50:49.382Z,99809.53
2024-01-11T20:53:16.911Z,99795.66
2024-01-11T20:55:44.684Z,99790.38
2024-01-11T20:58:11.766Z,99785.28
2024-01-11T21:00:39.964Z,99781.88
2024-01-11T21:03:07.430Z,99776.75
2024-01-11T21:05:35.832Z,99780.22
2024-01-11T21:08:04.627Z,99784.59
2024-01-11T21:10:32.476Z,99783.03
2024-01-11T21:12:59.539Z,99787.38
2024-01-11T21:15:26.878Z,99795.25
2024-01-11T21:17:54.478Z,99793.56
2024-01-11T21:20:21.991Z,99789.38
2024-01-11T21:22:49.028Z,99792.88
2024-01-11T21:25:16.628Z,99792.91
2024-01-11T21:27:43.611Z,99787.75
2024-01-11T21:30:12.468Z,99782.66
2024-01-11T21:32:39.681Z,99784.25
2024-01-11T21:35:09.024Z,99791.19
2024-01-11T21:37:36.200Z,99789.56
2024-01-11T21:40:05.256Z,99781.00
2024-01-11T21:42:33.318Z,99784.44
2024-01-11T21:45:26.757Z,99793.00
2024-01-11T21:47:53.881Z,99786.06
2024-01-11T21:50:21.616Z,99792.19
2024-01-11T21:52:49.235Z,99803.44
2024-01-11T21:55:16.788Z,99800.00
2024-01-11T21:57:44.524Z,99800.03
2024-01-11T22:00:13.599Z,99793.13
2024-01-11T22:02:49.078Z,99794.84
2024-01-11T22:05:38.239Z,99799.25
2024-01-11T22:08:13.796Z,99809.69
2024-01-11T22:10:45.298Z,99810.63
2024-01-11T22:13:12.571Z,99808.00
2024-01-11T22:15:39.827Z,99814.78
2024-01-11T22:18:07.621Z,99814.84
2024-01-11T22:20:36.352Z,99825.16
2024-01-11T22:23:03.549Z,99822.66
2024-01-11T22:25:30.815Z,99825.28
2024-01-11T22:27:57.856Z,99825.22
2024-01-11T22:30:26.151Z,99828.53
2024-01-11T22:32:53.425Z,99835.44
2024-01-11T22:35:20.934Z,99839.66
2024-01-11T22:37:48.014Z,99839.59
2024-01-11T22:40:15.811Z,99830.81
2024-01-11T22:42:42.865Z,99829.91
2024-01-11T22:45:11.648Z,99836.81
2024-01-11T22:47:38.774Z,99841.09
2024-01-11T22:50:07.171Z,99845.41
2024-01-11T22:52:34.164Z,99861.84
2024-01-11T22:55:01.529Z,99860.97
2024-01-11T22:57:28.604Z,99856.69
2024-01-11T22:59:55.890Z,99855.69
2024-01-11T23:02:23.274Z,99850.63
2024-01-11T23:04:50.932Z,99856.78
2024-01-11T23:07:18.602Z,99857.63
2024-01-11T23:09:45.863Z,99853.38
2024-01-11T23:12:12.890Z,99856.84
2024-01-11T23:14:40.142Z,99862.09
2024-01-11T23:17:07.664Z,99861.34
2024-01-11T23:19:35.075Z,99858.75
2024-01-11T23:22:02.256Z,99857.97
2024-01-11T23:24:29.471Z,99849.38
2024-01-11T23:26:56.530Z,99856.25
2024-01-11T23:29:23.840Z,99858.88
2024-01-11T23:31:51.626Z,99847.69
2024-01-11T23:34:19.104Z,99843.41
2024-01-11T23:36:46.303Z,99848.63
2024-01-11T23:39:13.616Z,99842.66
2024-01-11T23:41:42.608Z,99840.09
2024-01-11T23:44:09.919Z,99841.78
2024-01-11T23:46:36.916Z,99833.25
2024-01-11T23:49:04.407Z,99834.16
2024-01-11T23:51:31.919Z,99828.09
2024-01-11T23:53:59.294Z,99830.72
2024-01-11T23:56:26.329Z,99833.34
2024-01-11T23:58:53.598Z,99835.09
